New Albany, Kansas
Current Conditions -  °F | °C
As of 7:52 AM on Thursday 29 Jan 2015 (Local Time) from KCNU Reporting Station
Overcast Overcast  
Wind Chill: 30°   Ceiling: 2500
Heat Index: 40°   Visibility: 10mi
Dew Point: 31°   Wind: 21mph
Humidity: 70%   Direction: 350°N
Pressure: 30.26"   Gusts: 29mph
Location:  37.57°N, 95.94°W
Report Text: KCNU 291352Z AUTO 35018G25KT 10SM OVC025 04/M01 A3026 RMK AO2 PK WND 36026/1341 SLP247 T00441006
Loading
Personal Weather Stations






























Interactive Weather Map New forecast layout! Learn more

10-Day Weather Forecast

Advertisements
Track Severe Weather on mobile